createdAt,value
2023-04-09T00:04:05.453Z,60.94
2023-04-09T00:05:35.515Z,60.91
2023-04-09T00:16:13.735Z,61.11
2023-04-09T00:18:07.918Z,60.89
2023-04-09T00:29:10.004Z,61.35
2023-04-09T00:30:46.794Z,61.23
2023-04-09T00:44:45.931Z,61.49
2023-04-09T00:54:22.996Z,61.41
2023-04-09T01:17:20.536Z,61.68
2023-04-09T01:39:10.469Z,61.91
2023-04-09T01:48:35.324Z,62.21
2023-04-09T02:13:08.073Z,62.04
2023-04-09T02:47:45.984Z,62.79
2023-04-09T02:49:12.096Z,62.78
2023-04-09T02:50:34.756Z,63.01
2023-04-09T02:52:03.205Z,63.06
2023-04-09T02:53:26.460Z,63.11
2023-04-09T02:54:48.113Z,63.23
2023-04-09T02:56:13.106Z,63.17
2023-04-09T02:57:34.405Z,63.21
2023-04-09T02:58:56.730Z,63.28
2023-04-09T03:00:18.452Z,63.33
2023-04-09T03:01:40.978Z,63.25
2023-04-09T03:03:05.009Z,63.32
2023-04-09T03:04:29.576Z,63.38
2023-04-09T03:05:52.012Z,63.21
2023-04-09T03:07:13.754Z,63.34
2023-04-09T03:08:39.044Z,63.12
2023-04-09T03:10:00.189Z,63.33
2023-04-09T03:11:22.789Z,63.19
2023-04-09T03:12:44.973Z,63.15
2023-04-09T03:14:07.460Z,63.28
2023-04-09T03:15:28.634Z,63.09
2023-04-09T03:16:51.192Z,63.21
2023-04-09T03:18:15.873Z,63.25
2023-04-09T03:19:38.266Z,63.47
2023-04-09T03:25:02.512Z,63.38
2023-04-09T03:30:02.749Z,63.36
2023-04-09T03:30:56.037Z,63.58
2023-04-09T03:31:32.935Z,63.34
2023-04-09T03:33:08.180Z,63.52
2023-04-09T03:39:09.413Z,63.75
2023-04-09T04:09:56.261Z,64.67
2023-04-09T04:12:47.228Z,64.66
2023-04-09T04:14:48.778Z,64.75
2023-04-09T04:16:24.155Z,64.71
2023-04-09T04:17:46.454Z,64.77
2023-04-09T04:19:32.609Z,64.71
2023-04-09T04:20:56.332Z,65.13
2023-04-09T04:22:31.523Z,65.13
2023-04-09T04:23:59.562Z,65.13
2023-04-09T04:25:29.325Z,65.02
2023-04-09T04:26:52.484Z,64.84
2023-04-09T04:28:16.448Z,64.94
2023-04-09T04:29:39.187Z,65.04
2023-04-09T04:31:17.401Z,65.10
2023-04-09T04:32:38.969Z,65.10
2023-04-09T04:34:04.908Z,65.20
2023-04-09T04:35:26.570Z,65.23
2023-04-09T04:37:03.562Z,65.38
2023-04-09T04:38:28.203Z,65.12
2023-04-09T04:39:59.338Z,65.16
2023-04-09T04:41:24.618Z,65.33
2023-04-09T04:42:53.566Z,65.38
2023-04-09T04:44:18.012Z,65.43
2023-04-09T04:45:41.364Z,65.38
2023-04-09T04:47:07.317Z,65.44
2023-04-09T04:48:32.231Z,65.75
2023-04-09T04:49:55.095Z,65.85
2023-04-09T04:53:02.923Z,65.94
2023-04-09T04:56:15.796Z,66.00
2023-04-09T04:57:53.827Z,66.06
2023-04-09T04:59:23.020Z,66.10
2023-04-09T05:00:53.927Z,66.02
2023-04-09T05:02:19.237Z,65.87
2023-04-09T05:04:04.728Z,65.94
2023-04-09T05:05:29.581Z,65.97
2023-04-09T05:06:53.209Z,66.06
2023-04-09T05:08:19.949Z,66.20
2023-04-09T05:09:45.725Z,66.40
2023-04-09T05:11:08.228Z,66.24
2023-04-09T05:12:43.422Z,66.44
2023-04-09T05:14:08.063Z,66.37
2023-04-09T05:15:29.188Z,66.35
2023-04-09T05:16:52.420Z,66.04
2023-04-09T05:18:19.221Z,65.94
2023-04-09T05:19:41.961Z,66.12
2023-04-09T05:21:12.123Z,66.11
2023-04-09T05:22:40.314Z,66.09
2023-04-09T05:24:08.489Z,66.24
2023-04-09T05:25:30.904Z,65.90
2023-04-09T05:26:56.244Z,66.02
2023-04-09T05:28:19.410Z,66.15
2023-04-09T05:29:45.722Z,66.18
2023-04-09T05:31:13.267Z,66.26
2023-04-09T05:32:42.383Z,66.22
2023-04-09T05:34:05.136Z,66.30
2023-04-09T05:35:35.358Z,66.24
2023-04-09T05:37:01.113Z,66.40
2023-04-09T05:38:26.942Z,66.57
2023-04-09T05:43:03.129Z,66.43
2023-04-09T05:44:47.017Z,66.22
2023-04-09T05:46:14.344Z,65.94
2023-04-09T05:47:40.031Z,66.12
2023-04-09T05:49:14.457Z,66.30
2023-04-09T05:50:51.465Z,66.46
2023-04-09T05:52:17.267Z,66.58
2023-04-09T05:53:39.878Z,66.67
2023-04-09T05:55:01.331Z,66.95
2023-04-09T05:56:37.993Z,67.17
2023-04-09T05:58:12.911Z,67.55
2023-04-09T05:59:44.501Z,67.51
2023-04-09T06:01:11.687Z,67.68
2023-04-09T06:02:36.333Z,67.83
2023-04-09T06:04:01.807Z,67.99
2023-04-09T06:05:24.794Z,68.21
2023-04-09T06:07:00.284Z,68.66
2023-04-09T06:08:36.460Z,68.70
2023-04-09T06:11:07.040Z,68.55
2023-04-09T06:12:30.100Z,68.59
2023-04-09T06:14:42.801Z,68.55
2023-04-09T06:18:42.769Z,68.64
2023-04-09T06:20:11.077Z,68.98
2023-04-09T06:21:51.330Z,69.03
2023-04-09T06:24:11.198Z,69.25
2023-04-09T06:25:46.417Z,69.06
2023-04-09T06:27:14.287Z,68.89
2023-04-09T06:28:46.756Z,69.30
2023-04-09T06:30:53.458Z,69.52
2023-04-09T06:32:28.395Z,69.30
2023-04-09T06:35:02.844Z,69.47
2023-04-09T06:36:27.449Z,69.20
2023-04-09T06:37:49.685Z,69.25
2023-04-09T06:39:14.172Z,69.46
2023-04-09T06:40:40.695Z,69.89
2023-04-09T06:42:05.627Z,70.12
2023-04-09T06:43:44.465Z,70.24
2023-04-09T06:45:08.873Z,70.34
2023-04-09T06:46:31.733Z,70.49
2023-04-09T06:48:19.282Z,70.41
2023-04-09T06:49:54.327Z,70.15
2023-04-09T06:51:19.474Z,70.35
2023-04-09T06:52:43.206Z,70.46
2023-04-09T06:54:05.940Z,70.62
2023-04-09T06:56:30.397Z,70.72
2023-04-09T06:57:54.132Z,70.48
2023-04-09T06:59:21.963Z,70.96
2023-04-09T07:00:50.184Z,70.80
2023-04-09T07:02:15.794Z,70.69
2023-04-09T07:03:39.036Z,70.57
2023-04-09T07:05:43.197Z,70.26
2023-04-09T07:07:05.555Z,70.17
2023-04-09T07:08:38.510Z,70.45
2023-04-09T07:10:01.726Z,70.45
2023-04-09T07:11:24.437Z,70.84
2023-04-09T07:12:46.949Z,71.11
2023-04-09T07:14:11.884Z,71.37
2023-04-09T07:15:34.461Z,71.65
2023-04-09T07:17:14.384Z,71.69
2023-04-09T07:18:36.575Z,71.55
2023-04-09T07:20:01.954Z,71.74
2023-04-09T07:21:24.163Z,71.58
2023-04-09T07:22:46.391Z,71.71
2023-04-09T07:24:10.342Z,71.56
2023-04-09T07:25:34.940Z,71.56
2023-04-09T07:26:57.577Z,71.51
2023-04-09T07:28:20.027Z,71.88
2023-04-09T07:29:46.134Z,71.69
2023-04-09T07:31:13.391Z,71.56
2023-04-09T07:32:40.436Z,71.53
2023-04-09T07:34:06.348Z,71.52
2023-04-09T07:35:29.009Z,71.37
2023-04-09T07:36:54.119Z,71.14
2023-04-09T07:39:18.853Z,71.16
2023-04-09T07:40:42.815Z,70.88
2023-04-09T07:45:45.226Z,70.65
2023-04-09T07:54:42.645Z,69.94
2023-04-09T07:56:10.001Z,70.08
2023-04-09T07:57:33.742Z,70.23
2023-04-09T07:59:03.088Z,70.46
2023-04-09T08:00:27.481Z,70.33
2023-04-09T08:04:14.452Z,69.77
2023-04-09T08:05:41.899Z,69.76
2023-04-09T08:10:23.926Z,69.52
2023-04-09T08:19:43.270Z,69.35
2023-04-09T08:46:13.071Z,67.72
2023-04-09T08:48:00.287Z,67.70
2023-04-09T08:49:40.967Z,67.49
2023-04-09T08:51:06.642Z,67.50
2023-04-09T08:52:54.602Z,67.54
2023-04-09T08:54:19.944Z,67.25
2023-04-09T08:55:46.843Z,67.19
2023-04-09T08:57:12.621Z,66.99
2023-04-09T08:58:59.688Z,67.06
2023-04-09T09:00:24.476Z,66.92
2023-04-09T09:01:54.573Z,66.51
2023-04-09T09:12:55.780Z,65.33
2023-04-09T09:14:21.454Z,65.82
2023-04-09T09:15:42.989Z,65.93
2023-04-09T09:17:08.679Z,65.56
2023-04-09T09:19:24.955Z,65.63
2023-04-09T09:20:46.744Z,65.73
2023-04-09T09:22:15.695Z,65.70
2023-04-09T09:24:27.658Z,65.47
2023-04-09T09:26:21.330Z,65.67
2023-04-09T09:27:54.844Z,65.54
2023-04-09T09:29:21.540Z,65.41
2023-04-09T09:30:44.714Z,65.62
2023-04-09T09:32:15.048Z,65.59
2023-04-09T09:33:38.130Z,65.69
2023-04-09T09:35:07.381Z,65.63
2023-04-09T09:37:10.771Z,66.11
2023-04-09T09:39:21.279Z,66.28
2023-04-09T09:40:43.926Z,66.48
2023-04-09T09:42:12.191Z,66.14
2023-04-09T09:43:46.970Z,66.04
2023-04-09T09:45:19.842Z,66.04
2023-04-09T09:46:49.180Z,66.18
2023-04-09T09:48:16.212Z,66.35
2023-04-09T09:49:41.158Z,66.15
2023-04-09T09:54:36.816Z,65.78
2023-04-09T09:56:01.772Z,65.85
2023-04-09T09:57:38.023Z,65.34
2023-04-09T09:59:08.979Z,65.34
2023-04-09T10:00:34.941Z,65.09
2023-04-09T10:02:05.282Z,64.96
2023-04-09T10:06:22.579Z,65.25
2023-04-09T10:07:50.943Z,65.42
2023-04-09T10:31:13.483Z,67.16
2023-04-09T10:33:48.716Z,67.28
2023-04-09T10:35:27.625Z,67.52
2023-04-09T10:37:17.201Z,68.14
2023-04-09T10:39:13.773Z,68.55
2023-04-09T10:41:17.286Z,68.59
2023-04-09T10:42:50.887Z,69.33
2023-04-09T10:44:28.225Z,69.87
2023-04-09T10:45:53.687Z,70.19
2023-04-09T10:47:39.739Z,70.81
2023-04-09T10:49:13.809Z,71.00
2023-04-09T10:50:40.418Z,70.99
2023-04-09T10:52:30.832Z,71.08
2023-04-09T10:54:47.277Z,70.69
2023-04-09T10:56:18.123Z,70.87
2023-04-09T11:00:56.286Z,70.47
2023-04-09T11:12:03.974Z,71.09
2023-04-09T11:24:05.503Z,71.81
2023-04-09T12:45:40.827Z,70.98
2023-04-09T12:55:40.410Z,71.62
2023-04-09T13:31:28.093Z,71.89
2023-04-09T13:33:29.879Z,71.79
2023-04-09T13:46:33.856Z,71.53
2023-04-09T14:07:31.022Z,72.21
2023-04-09T14:19:51.640Z,72.37
2023-04-09T14:24:42.763Z,72.42
2023-04-09T14:26:08.241Z,72.61
2023-04-09T14:27:31.077Z,72.43
2023-04-09T14:28:53.630Z,73.01
2023-04-09T14:41:19.317Z,73.31
2023-04-09T14:43:07.884Z,73.34
2023-04-09T14:44:33.527Z,73.18
2023-04-09T14:47:23.296Z,73.49
2023-04-09T15:15:05.226Z,74.27
2023-04-09T15:19:23.082Z,74.54
2023-04-09T15:20:48.073Z,74.73
2023-04-09T15:22:09.946Z,74.83
2023-04-09T15:23:32.158Z,75.05
2023-04-09T15:27:17.176Z,75.01
2023-04-09T15:28:39.600Z,75.22
2023-04-09T15:30:02.148Z,75.39
2023-04-09T15:31:24.370Z,75.52
2023-04-09T15:32:59.124Z,75.55
2023-04-09T15:34:55.997Z,75.72
2023-04-09T15:36:18.460Z,75.67
2023-04-09T15:38:37.538Z,75.79
2023-04-09T15:40:21.649Z,75.44
2023-04-09T15:41:43.818Z,75.72
2023-04-09T15:43:05.852Z,75.74
2023-04-09T15:44:28.520Z,75.92
2023-04-09T15:45:51.624Z,75.94
2023-04-09T15:47:14.140Z,75.82
2023-04-09T15:48:36.788Z,75.72
2023-04-09T15:50:05.442Z,75.72
2023-04-09T15:51:31.429Z,75.87
2023-04-09T15:52:56.395Z,75.71
2023-04-09T15:54:19.475Z,75.65
2023-04-09T15:55:44.776Z,75.71
2023-04-09T15:57:06.191Z,75.61
2023-04-09T15:58:29.040Z,75.65
2023-04-09T15:59:52.364Z,75.66
2023-04-09T16:01:55.267Z,75.91
2023-04-09T16:03:18.081Z,75.59
2023-04-09T16:04:43.687Z,75.68
2023-04-09T16:06:09.262Z,75.72
2023-04-09T16:07:32.025Z,75.75
2023-04-09T16:09:12.156Z,75.64
2023-04-09T16:10:53.925Z,75.54
2023-04-09T16:12:19.094Z,75.38
2023-04-09T16:13:42.428Z,75.48
2023-04-09T16:15:04.935Z,75.73
2023-04-09T16:16:27.358Z,75.75
2023-04-09T16:17:55.146Z,75.72
2023-04-09T16:19:18.433Z,75.93
2023-04-09T16:20:40.944Z,75.85
2023-04-09T16:22:07.614Z,75.89
2023-04-09T16:23:30.846Z,75.72
2023-04-09T16:24:56.497Z,75.87
2023-04-09T16:26:58.167Z,75.83
2023-04-09T16:28:22.001Z,75.71
2023-04-09T16:29:47.513Z,75.84
2023-04-09T16:31:23.763Z,75.96
2023-04-09T16:32:46.290Z,75.79
2023-04-09T16:37:36.788Z,75.79
2023-04-09T16:48:44.483Z,76.00
2023-04-09T17:42:00.989Z,77.07
2023-04-09T17:50:57.536Z,77.18
2023-04-09T17:54:16.210Z,77.19
2023-04-09T17:55:53.362Z,77.54
2023-04-09T17:57:17.313Z,77.58
2023-04-09T17:58:40.127Z,77.45
2023-04-09T18:00:05.671Z,77.67
2023-04-09T18:01:35.794Z,77.81
2023-04-09T18:02:59.075Z,77.75
2023-04-09T18:07:26.046Z,77.42
2023-04-09T18:08:51.614Z,77.37
2023-04-09T18:13:32.859Z,77.28
2023-04-09T18:14:56.955Z,77.34
2023-04-09T18:17:27.065Z,77.35
2023-04-09T18:23:19.206Z,77.11
2023-04-09T18:25:48.432Z,77.21
2023-04-09T18:27:12.832Z,77.13
2023-04-09T18:28:36.186Z,76.93
2023-04-09T18:31:27.699Z,77.29
2023-04-09T18:34:08.486Z,77.29
2023-04-09T18:35:46.330Z,77.24
2023-04-09T18:37:10.161Z,77.20
2023-04-09T18:39:57.591Z,77.23
2023-04-09T18:42:15.541Z,77.25
2023-04-09T18:44:08.581Z,77.32
2023-04-09T18:45:38.169Z,77.24
2023-04-09T18:55:33.603Z,77.13
2023-04-09T18:57:02.242Z,77.15
2023-04-09T18:58:25.211Z,77.37
2023-04-09T19:02:51.271Z,77.39
2023-04-09T19:51:25.517Z,77.45
2023-04-09T19:52:52.514Z,77.41
2023-04-09T19:54:18.187Z,77.75
2023-04-09T19:59:09.507Z,77.65
2023-04-09T20:00:57.143Z,77.61
2023-04-09T20:02:42.378Z,77.68
2023-04-09T20:04:10.233Z,77.72
2023-04-09T20:09:24.301Z,77.59
2023-04-09T20:49:09.905Z,77.41
2023-04-09T21:23:58.945Z,77.83
2023-04-09T21:26:17.088Z,77.75
2023-04-09T21:30:53.719Z,77.59
2023-04-09T21:32:58.883Z,77.93
2023-04-09T21:37:19.492Z,77.58
2023-04-09T21:39:02.414Z,77.89
2023-04-09T21:40:28.639Z,77.70
2023-04-09T21:41:51.435Z,77.76
2023-04-09T21:43:31.115Z,77.77
2023-04-09T21:45:01.638Z,77.86
2023-04-09T21:46:47.416Z,77.88
2023-04-09T21:48:27.612Z,77.96
2023-04-09T21:50:02.439Z,77.79
2023-04-09T21:51:37.391Z,77.86
2023-04-09T21:53:06.509Z,78.03
2023-04-09T21:54:35.983Z,77.96
2023-04-09T21:56:04.197Z,78.07
2023-04-09T21:57:46.060Z,78.01
2023-04-09T21:59:39.157Z,78.00
2023-04-09T22:01:22.656Z,77.79
2023-04-09T22:02:54.172Z,77.92
2023-04-09T22:04:17.265Z,78.05
2023-04-09T22:05:42.178Z,77.96
2023-04-09T22:10:14.186Z,78.08
2023-04-09T22:11:53.100Z,77.96
2023-04-09T22:13:23.121Z,77.92
2023-04-09T22:14:46.240Z,78.15
2023-04-09T22:16:17.580Z,78.06
2023-04-09T22:17:44.826Z,78.05
2023-04-09T22:19:09.646Z,78.06
2023-04-09T22:20:32.771Z,78.02
2023-04-09T22:21:59.081Z,78.00
2023-04-09T22:23:21.782Z,78.05
2023-04-09T22:24:49.641Z,78.01
2023-04-09T22:26:16.598Z,77.92
2023-04-09T22:28:06.037Z,78.06
2023-04-09T22:29:37.341Z,78.04
2023-04-09T22:31:03.721Z,77.93
2023-04-09T22:32:43.506Z,78.15
2023-04-09T22:34:21.192Z,78.05
2023-04-09T22:35:49.197Z,77.97
2023-04-09T22:37:12.421Z,78.21
2023-04-09T22:38:38.592Z,78.07
2023-04-09T22:40:19.388Z,78.04
2023-04-09T22:41:44.824Z,78.17
2023-04-09T22:43:10.971Z,78.00
2023-04-09T22:44:40.445Z,77.86
2023-04-09T22:46:12.167Z,78.18
2023-04-09T22:51:14.443Z,78.15
2023-04-09T22:52:40.846Z,78.06
2023-04-09T22:55:44.527Z,78.35
2023-04-09T22:57:10.011Z,78.42
2023-04-09T22:58:32.314Z,78.48
2023-04-09T23:00:22.383Z,78.54
2023-04-09T23:01:49.239Z,78.62
2023-04-09T23:03:12.543Z,78.42
2023-04-09T23:04:56.025Z,78.51
2023-04-09T23:06:19.307Z,78.58
2023-04-09T23:07:48.904Z,78.54
2023-04-09T23:09:56.705Z,78.40
2023-04-09T23:11:27.413Z,78.49
2023-04-09T23:13:24.117Z,78.71
2023-04-09T23:16:05.692Z,78.39
2023-04-09T23:17:51.559Z,78.41
2023-04-09T23:19:56.214Z,78.52
2023-04-09T23:21:22.121Z,78.59
2023-04-09T23:26:03.080Z,78.65
2023-04-09T23:27:32.430Z,78.75
2023-04-09T23:29:09.650Z,78.90
2023-04-09T23:30:32.536Z,78.67
2023-04-09T23:35:03.123Z,78.82
2023-04-09T23:39:43.949Z,78.67
2023-04-09T23:41:22.469Z,78.67
2023-04-09T23:49:57.069Z,78.71
2023-04-09T23:52:15.101Z,78.58
2023-04-09T23:54:07.640Z,78.76
2023-04-09T23:55:41.318Z,78.98
2023-04-09T23:57:22.039Z,79.04
2023-04-09T23:59:47.511Z,79.13
